Time;durP1;ratioP1;P1;durP2;ratioP2;P2;SDS_P1;SDS_P2;PMS_P1;PMS_P2;Temp;Humidity;BMP_temperature;BMP_pressure;BME280_temperature;BME280_humidity;BME280_pressure;Samples;Min_cycle;Max_cycle;Signal;HPM_P1;HPM_P2
2022/10/04 00:00:20;;;;;;;;;;;;;;;21.78;65.36;100024.75;7311612;19;129714;-37
2022/10/04 00:02:46;;;;;;;;;;;;;;;21.78;64.41;100024.75;7313411;19;131754;-38
2022/10/04 00:05:14;;;;;;;;;;;;;;;21.78;64.69;100029.97;7309139;19;130318;-38
2022/10/04 00:07:45;;;;;;;;;;;;;;;21.80;65.26;100020.22;7312537;19;130520;-37
2022/10/04 00:10:25;;;;;;;;;;;;;;;21.75;64.94;100019.75;7313059;19;129420;-37
2022/10/04 00:12:55;;;;;;;;;;;;;;;21.74;65.07;100028.56;7311750;19;129562;-38
2022/10/04 00:15:21;;;;;;;;;;;;;;;21.72;64.88;100035.72;7313863;19;130215;-37
2022/10/04 00:18:05;;;;;;;;;;;;;;;21.73;65.27;100029.50;7312562;19;129195;-37
2022/10/04 00:20:52;;;;;;;;;;;;;;;21.75;65.69;100027.59;7307963;19;129341;-37
2022/10/04 00:23:23;;;;;;;;;;;;;;;21.69;65.10;100014.22;7310724;19;130595;-37
2022/10/04 00:26:12;;;;;;;;;;;;;;;21.75;65.40;100030.22;7311554;19;129355;-37
2022/10/04 00:28:38;;;;;;;;;;;;;;;21.77;65.24;100033.56;7309291;19;130489;-38
2022/10/04 00:31:18;;;;;;;;;;;;;;;21.78;64.97;100027.38;7312209;19;129243;-37
2022/10/04 00:33:43;;;;;;;;;;;;;;;21.80;65.64;100022.00;7310711;19;130142;-37
2022/10/04 00:36:28;;;;;;;;;;;;;;;21.79;64.71;100023.81;7310363;19;130333;-38
2022/10/04 00:39:12;;;;;;;;;;;;;;;21.77;65.22;100017.88;7312235;19;129070;-38
2022/10/04 00:41:46;;;;;;;;;;;;;;;21.79;65.02;100021.19;7310734;19;129378;-38
2022/10/04 00:44:17;;;;;;;;;;;;;;;21.76;64.83;100018.84;7310013;19;129729;-38
2022/10/04 00:46:44;;;;;;;;;;;;;;;21.81;64.90;100021.06;7310503;19;131313;-39
2022/10/04 00:49:11;;;;;;;;;;;;;;;21.76;65.06;100020.59;7311212;19;129205;-37
2022/10/04 00:51:37;;;;;;;;;;;;;;;21.78;65.11;100022.13;7309407;19;129131;-38
2022/10/04 00:54:11;;;;;;;;;;;;;;;21.80;65.57;100022.84;7309549;19;130914;-38
2022/10/04 00:56:51;;;;;;;;;;;;;;;21.80;64.83;100019.38;7311252;19;129369;-38
2022/10/04 00:59:19;;;;;;;;;;;;;;;21.79;64.78;100018.56;7311013;19;129768;-37
2022/10/04 01:01:47;;;;;;;;;;;;;;;21.81;64.94;100031.53;7311075;19;128990;-38
2022/10/04 01:04:21;;;;;;;;;;;;;;;21.79;64.74;100026.44;7309560;19;129957;-37
2022/10/04 01:06:47;;;;;;;;;;;;;;;21.83;64.89;100017.34;7310475;19;129995;-37
2022/10/04 01:09:12;;;;;;;;;;;;;;;21.80;64.94;100012.38;7311844;19;129848;-38
2022/10/04 01:11:41;;;;;;;;;;;;;;;21.78;64.58;100014.28;7310896;19;129291;-38
2022/10/04 01:14:12;;;;;;;;;;;;;;;21.76;65.23;100010.13;7304874;19;130270;-37
2022/10/04 01:16:38;;;;;;;;;;;;;;;21.75;65.48;100009.28;7311971;19;129785;-37
2022/10/04 01:19:19;;;;;;;;;;;;;;;21.66;64.77;99983.91;7309958;19;129461;-37
2022/10/04 01:21:45;;;;;;;;;;;;;;;21.77;65.31;100004.78;7311210;19;129513;-37
2022/10/04 01:24:11;;;;;;;;;;;;;;;21.75;65.13;100011.91;7306936;19;129807;-38
2022/10/04 01:26:38;;;;;;;;;;;;;;;21.76;64.95;100005.75;7312237;19;130695;-38
2022/10/04 01:29:08;;;;;;;;;;;;;;;21.76;65.15;100003.13;7312717;19;129767;-37
2022/10/04 01:31:34;;;;;;;;;;;;;;;21.81;64.85;100003.56;7308980;19;129690;-37
2022/10/04 01:34:00;;;;;;;;;;;;;;;21.78;64.79;100003.81;7308193;19;129934;-37
2022/10/04 01:36:29;;;;;;;;;;;;;;;21.76;65.12;100000.53;7307577;19;132099;-38
2022/10/04 01:38:54;;;;;;;;;;;;;;;21.74;65.62;100002.41;7308119;19;129997;-38
2022/10/04 01:41:28;;;;;;;;;;;;;;;21.80;65.35;100001.06;7309593;19;128940;-37
2022/10/04 01:43:57;;;;;;;;;;;;;;;21.68;65.19;99987.19;7308153;19;130855;-37
2022/10/04 01:46:24;;;;;;;;;;;;;;;21.76;65.06;100004.88;7309145;19;129233;-38
2022/10/04 01:48:52;;;;;;;;;;;;;;;21.75;65.52;100009.28;7310996;19;129485;-37
2022/10/04 01:51:28;;;;;;;;;;;;;;;21.79;65.27;100009.88;7310672;19;129883;-38
2022/10/04 01:54:08;;;;;;;;;;;;;;;21.79;65.04;100010.72;7308070;19;131248;-37
2022/10/04 01:56:46;;;;;;;;;;;;;;;21.79;65.41;100009.88;7308467;19;129822;-38
2022/10/04 01:59:18;;;;;;;;;;;;;;;21.77;64.92;100009.19;7309060;19;130991;-38
2022/10/04 02:01:51;;;;;;;;;;;;;;;21.77;65.41;100006.56;7311148;19;129216;-38
2022/10/04 02:04:18;;;;;;;;;;;;;;;21.78;65.25;100009.03;7313950;19;130387;-38
2022/10/04 02:06:44;;;;;;;;;;;;;;;21.78;65.28;99998.56;7318289;19;129655;-38
2022/10/04 02:09:13;;;;;;;;;;;;;;;21.79;65.30;100002.88;7316381;19;130371;-38
2022/10/04 02:11:40;;;;;;;;;;;;;;;21.77;64.98;99998.72;7316349;19;129482;-38
2022/10/04 02:14:11;;;;;;;;;;;;;;;21.79;64.98;100002.88;7311084;19;130348;-37
2022/10/04 02:16:38;;;;;;;;;;;;;;;21.77;65.20;99991.69;7316905;19;130382;-37
2022/10/04 02:19:03;;;;;;;;;;;;;;;21.79;65.39;99989.78;7316452;19;129317;-37
2022/10/04 02:21:29;;;;;;;;;;;;;;;21.77;65.32;99985.63;7317029;19;129691;-37
2022/10/04 02:23:54;;;;;;;;;;;;;;;21.78;65.58;99995.97;7314740;19;129041;-37
2022/10/04 02:26:20;;;;;;;;;;;;;;;21.79;64.72;99984.56;7316386;19;129306;-38
2022/10/04 02:28:45;;;;;;;;;;;;;;;21.82;65.35;99988.69;7316389;19;128983;-38
2022/10/04 02:33:56;;;;;;;;;;;;;;;21.79;65.17;99981.94;7313882;19;129457;-37
2022/10/04 02:36:26;;;;;;;;;;;;;;;21.79;64.96;99983.72;7314236;19;130349;-38
2022/10/04 02:39:24;;;;;;;;;;;;;;;21.80;65.04;99982.75;7316529;19;129016;-37
2022/10/04 02:41:51;;;;;;;;;;;;;;;21.78;64.90;99985.50;7312178;19;129992;-38
2022/10/04 02:44:19;;;;;;;;;;;;;;;21.76;65.46;99984.81;7313906;19;129722;-38
2022/10/04 02:46:45;;;;;;;;;;;;;;;21.77;64.89;99980.38;7314860;19;130159;-37
2022/10/04 02:49:28;;;;;;;;;;;;;;;21.81;65.59;99977.41;7316069;19;129792;-37
2022/10/04 02:52:00;;;;;;;;;;;;;;;21.79;65.04;99976.69;7314575;19;130159;-37
2022/10/04 02:54:29;;;;;;;;;;;;;;;21.81;64.81;99977.41;7314243;19;129502;-38
2022/10/04 02:56:55;;;;;;;;;;;;;;;21.78;65.37;99975.03;7314531;19;131081;-37
2022/10/04 02:59:20;;;;;;;;;;;;;;;21.82;64.89;99979.03;7314715;19;129032;-38
2022/10/04 03:01:53;;;;;;;;;;;;;;;21.80;64.83;99977.50;7312844;19;129393;-37
2022/10/04 03:04:22;;;;;;;;;;;;;;;21.76;65.54;99963.00;7310478;19;129701;-37
2022/10/04 03:06:48;;;;;;;;;;;;;;;21.79;65.39;99968.84;7315746;19;130423;-37
2022/10/04 03:09:14;;;;;;;;;;;;;;;21.78;64.56;99967.16;7315206;19;129056;-37
2022/10/04 03:11:39;;;;;;;;;;;;;;;21.79;65.57;99968.84;7313383;19;129392;-38
2022/10/04 03:14:24;;;;;;;;;;;;;;;21.83;65.12;99975.47;7310143;19;129067;-37
2022/10/04 03:16:52;;;;;;;;;;;;;;;21.80;64.59;99970.50;7315608;19;130529;-37
2022/10/04 03:19:18;;;;;;;;;;;;;;;21.68;64.80;99960.22;7312886;19;131550;-38
2022/10/04 03:21:46;;;;;;;;;;;;;;;21.76;65.30;99969.13;7314404;19;129736;-37
2022/10/04 03:24:16;;;;;;;;;;;;;;;21.80;64.85;99967.88;7312653;19;129407;-38
2022/10/04 03:26:44;;;;;;;;;;;;;;;21.76;65.09;99960.41;7314367;19;129954;-38
2022/10/04 03:29:11;;;;;;;;;;;;;;;21.75;65.47;99963.97;7314574;19;128798;-37
2022/10/04 03:31:41;;;;;;;;;;;;;;;21.77;65.15;99976.00;7312886;19;129000;-37
2022/10/04 03:34:12;;;;;;;;;;;;;;;21.79;65.13;99968.00;7313736;19;130116;-37
2022/10/04 03:36:38;;;;;;;;;;;;;;;21.78;64.72;99976.84;7313296;19;130472;-37
2022/10/04 03:39:07;;;;;;;;;;;;;;;21.76;65.39;99974.34;7314547;19;129046;-37
2022/10/04 03:41:33;;;;;;;;;;;;;;;21.73;65.65;99971.94;7312177;19;129006;-37
2022/10/04 03:43:59;;;;;;;;;;;;;;;21.77;65.35;99965.53;7311063;19;129244;-38
2022/10/04 03:46:27;;;;;;;;;;;;;;;21.80;65.43;99970.50;7311146;19;129504;-37
2022/10/04 03:48:54;;;;;;;;;;;;;;;21.70;64.80;99955.69;7313876;19;129970;-38
2022/10/04 03:51:20;;;;;;;;;;;;;;;21.80;65.19;99969.66;7312351;19;129912;-38
2022/10/04 03:53:48;;;;;;;;;;;;;;;21.76;65.21;99969.13;7308787;19;129886;-38
2022/10/04 03:56:17;;;;;;;;;;;;;;;21.76;65.07;99969.13;7313590;19;130653;-38
2022/10/04 03:58:43;;;;;;;;;;;;;;;21.80;64.74;99970.50;7312557;19;129155;-37
2022/10/04 04:01:16;;;;;;;;;;;;;;;21.79;65.39;99963.59;7312205;19;129415;-38
2022/10/04 04:03:47;;;;;;;;;;;;;;;21.81;65.21;99973.94;7311367;19;129193;-37
2022/10/04 04:06:17;;;;;;;;;;;;;;;21.76;65.26;99970.84;7312817;19;130323;-38
2022/10/04 04:08:44;;;;;;;;;;;;;;;21.78;65.43;99971.59;7311356;19;129092;-38
2022/10/04 04:11:17;;;;;;;;;;;;;;;21.80;64.85;99977.50;7314139;19;129053;-38
2022/10/04 04:13:50;;;;;;;;;;;;;;;21.78;65.22;99967.16;7308201;19;130328;-38
2022/10/04 04:16:18;;;;;;;;;;;;;;;21.76;65.16;99979.59;7313515;19;131148;-37
2022/10/04 04:18:44;;;;;;;;;;;;;;;21.78;65.32;99980.25;7311658;19;128862;-38
2022/10/04 04:21:14;;;;;;;;;;;;;;;21.79;65.11;99976.69;7311459;19;130444;-37
2022/10/04 04:23:43;;;;;;;;;;;;;;;21.79;65.59;99971.47;7308609;19;129434;-37
2022/10/04 04:26:18;;;;;;;;;;;;;;;21.83;65.38;99980.69;7312274;19;130745;-38
2022/10/04 04:28:47;;;;;;;;;;;;;;;21.82;65.44;99978.22;7312004;19;129089;-38
2022/10/04 04:31:18;;;;;;;;;;;;;;;21.81;65.16;99980.03;7313590;19;130391;-38
2022/10/04 04:33:46;;;;;;;;;;;;;;;21.80;65.00;99978.34;7307518;19;130269;-38
2022/10/04 04:36:13;;;;;;;;;;;;;;;21.80;65.32;99986.19;7312478;19;130418;-37
2022/10/04 04:39:33;;;;;;;;;;;;;;;21.81;65.18;99981.78;7311697;19;129233;-37
2022/10/04 04:41:25;;;;;;;;;;;;;;;21.80;65.30;99980.97;7310262;19;129645;-37
2022/10/04 04:43:50;;;;;;;;;;;;;;;21.79;65.53;99992.41;7309712;19;129200;-37
2022/10/04 04:46:16;;;;;;;;;;;;;;;21.80;65.31;99980.13;7313119;19;130107;-37
2022/10/04 04:48:46;;;;;;;;;;;;;;;21.75;65.40;99979.69;7311516;19;129161;-38
2022/10/04 04:51:17;;;;;;;;;;;;;;;21.75;65.26;99977.88;7310668;19;130482;-38
2022/10/04 04:53:42;;;;;;;;;;;;;;;21.76;64.90;99979.59;7308937;19;129549;-37
2022/10/04 04:56:08;;;;;;;;;;;;;;;21.77;65.46;99983.84;7311830;19;131337;-38
2022/10/04 04:58:35;;;;;;;;;;;;;;;21.75;65.65;99988.34;7309865;19;129100;-38
2022/10/04 05:01:04;;;;;;;;;;;;;;;21.78;65.27;99985.50;7306713;19;129387;-37
2022/10/04 05:03:31;;;;;;;;;;;;;;;21.77;65.03;99994.31;7308870;19;129674;-37
2022/10/04 05:05:59;;;;;;;;;;;;;;;21.77;65.16;99996.94;7306822;19;132745;-37
2022/10/04 05:08:28;;;;;;;;;;;;;;;21.81;65.04;99993.09;7309617;19;129745;-38
2022/10/04 05:11:05;;;;;;;;;;;;;;;21.79;65.46;99995.00;7308515;19;129582;-38
2022/10/04 05:13:48;;;;;;;;;;;;;;;21.81;64.84;100003.56;7308618;19;129351;-37
2022/10/04 05:16:25;;;;;;;;;;;;;;;21.78;64.81;99998.56;7310608;19;131071;-37
2022/10/04 05:18:59;;;;;;;;;;;;;;;21.79;65.61;100005.50;7310598;19;129091;-37
2022/10/04 05:21:27;;;;;;;;;;;;;;;21.76;65.66;99997.91;7310860;19;129068;-38
2022/10/04 05:23:54;;;;;;;;;;;;;;;21.73;65.62;99989.44;7307091;19;130851;-37
2022/10/04 05:26:23;;;;;;;;;;;;;;;21.82;65.13;100002.59;7311524;19;130337;-37
2022/10/04 05:28:49;;;;;;;;;;;;;;;21.82;64.99;100009.63;7307332;19;129077;-37
2022/10/04 05:31:17;;;;;;;;;;;;;;;21.79;65.38;100009.88;7309726;19;129127;-38
2022/10/04 05:33:47;;;;;;;;;;;;;;;21.80;64.77;100012.38;7308339;19;129893;-37
2022/10/04 05:36:37;;;;;;;;;;;;;;;21.70;64.91;99998.38;7315990;19;129961;-38
2022/10/04 05:39:14;;;;;;;;;;;;;;;21.79;64.92;100021.19;7324573;19;129327;-38
2022/10/04 05:41:57;;;;;;;;;;;;;;;21.77;64.86;100023.09;7324965;19;129317;-38
2022/10/04 05:44:27;;;;;;;;;;;;;;;21.77;65.40;100028.34;7319702;19;130409;-37
2022/10/04 05:46:54;;;;;;;;;;;;;;;21.78;64.67;100019.50;7324117;19;131060;-38
2022/10/04 05:49:21;;;;;;;;;;;;;;;21.76;65.03;100029.31;7323800;19;129650;-37
2022/10/04 05:51:48;;;;;;;;;;;;;;;21.78;65.07;100029.19;7323286;19;128863;-38
2022/10/04 05:54:17;;;;;;;;;;;;;;;21.78;64.96;100029.19;7322345;19;130520;-37
2022/10/04 05:56:57;;;;;;;;;;;;;;;21.80;65.61;100035.09;7324006;19;129737;-38
2022/10/04 05:59:35;;;;;;;;;;;;;;;21.82;65.56;100038.41;7323644;19;128870;-38
2022/10/04 06:02:19;;;;;;;;;;;;;;;21.77;65.41;100036.19;7324285;19;129137;-37
2022/10/04 06:04:44;;;;;;;;;;;;;;;21.77;65.00;100037.97;7320679;19;129628;-37
2022/10/04 06:07:24;;;;;;;;;;;;;;;21.68;65.19;100023.03;7324510;19;130358;-37
2022/10/04 06:09:49;;;;;;;;;;;;;;;21.74;64.72;100043.44;7323561;19;129146;-37
2022/10/04 06:12:14;;;;;;;;;;;;;;;21.76;64.80;100045.00;7322954;19;129066;-37
2022/10/04 06:14:39;;;;;;;;;;;;;;;21.76;65.59;100041.53;7320771;19;129563;-37
2022/10/04 06:17:04;;;;;;;;;;;;;;;21.78;65.58;100047.50;7324515;19;130974;-37
2022/10/04 06:19:45;;;;;;;;;;;;;;;21.79;65.40;100042.13;7322396;19;128977;-37
2022/10/04 06:22:15;;;;;;;;;;;;;;;21.78;65.42;100047.50;7323451;19;128832;-37
2022/10/04 06:24:43;;;;;;;;;;;;;;;21.68;64.95;100034.31;7319009;19;129867;-38
2022/10/04 06:27:14;;;;;;;;;;;;;;;21.78;65.48;100040.44;7319639;19;131251;-38
2022/10/04 06:29:43;;;;;;;;;;;;;;;21.79;65.01;100042.13;7323288;19;129142;-38
2022/10/04 06:32:22;;;;;;;;;;;;;;;21.83;65.31;100047.94;7324256;19;129368;-37
2022/10/04 06:34:48;;;;;;;;;;;;;;;21.74;65.26;100049.50;7321649;19;130422;-38
2022/10/04 06:37:32;;;;;;;;;;;;;;;21.74;64.90;100044.28;7323284;19;130331;-38
2022/10/04 06:40:07;;;;;;;;;;;;;;;21.74;65.24;100046.88;7319405;19;129221;-37
2022/10/04 06:42:55;;;;;;;;;;;;;;;21.80;65.36;100051.63;7319794;19;130681;-38
2022/10/04 06:45:21;;;;;;;;;;;;;;;21.76;65.49;100052.00;7321296;19;129763;-38
2022/10/04 06:47:59;;;;;;;;;;;;;;;21.66;64.78;100041.47;7319272;19;129528;-38
2022/10/04 06:50:28;;;;;;;;;;;;;;;21.76;65.52;100052.00;7316879;19;129192;-37
2022/10/04 06:53:15;;;;;;;;;;;;;;;21.78;65.04;100057.97;7313852;19;129698;-37
2022/10/04 06:55:45;;;;;;;;;;;;;;;21.76;65.01;100058.09;7316326;19;130265;-38
2022/10/04 06:58:23;;;;;;;;;;;;;;;21.79;65.07;100063.06;7316021;19;129706;-38
2022/10/04 07:01:00;;;;;;;;;;;;;;;21.78;65.17;100060.59;7306371;19;130396;-38
2022/10/04 07:03:49;;;;;;;;;;;;;;;21.79;65.14;100068.31;7307039;19;129664;-37
2022/10/04 07:06:20;;;;;;;;;;;;;;;21.70;65.07;100058.56;7306425;19;130658;-37
2022/10/04 07:08:58;;;;;;;;;;;;;;;21.82;64.61;100073.28;7311096;19;128966;-37
2022/10/04 07:11:29;;;;;;;;;;;;;;;21.77;65.05;100070.22;7315316;19;130160;-38
2022/10/04 07:14:12;;;;;;;;;;;;;;;21.76;65.01;100073.81;7313610;19;129168;-37
2022/10/04 07:16:42;;;;;;;;;;;;;;;21.78;65.05;100073.66;7315267;19;130320;-38
2022/10/04 07:19:16;;;;;;;;;;;;;;;21.77;65.46;100072.81;7313548;19;130502;-38
2022/10/04 07:21:55;;;;;;;;;;;;;;;21.79;64.87;100083.16;7311310;19;129096;-37
2022/10/04 07:24:24;;;;;;;;;;;;;;;21.78;65.07;100077.09;7312169;19;128917;-37
2022/10/04 07:26:51;;;;;;;;;;;;;;;21.76;64.93;100078.16;7313126;19;132454;-37
2022/10/04 07:29:19;;;;;;;;;;;;;;;21.78;64.92;100071.84;7314084;19;130351;-37
2022/10/04 07:31:46;;;;;;;;;;;;;;;21.78;65.62;100077.09;7313392;19;128843;-37
2022/10/04 07:34:17;;;;;;;;;;;;;;;21.78;65.12;100076.28;7310374;19;129660;-37
2022/10/04 07:36:42;;;;;;;;;;;;;;;21.76;65.04;100081.66;7314800;19;129617;-38
2022/10/04 07:39:16;;;;;;;;;;;;;;;21.69;65.60;100069.16;7312676;19;130943;-38
2022/10/04 07:41:48;;;;;;;;;;;;;;;21.72;64.83;100085.44;7310110;19;129026;-38
2022/10/04 07:44:26;;;;;;;;;;;;;;;21.74;65.00;100086.16;7313044;19;129586;-38
2022/10/04 07:46:57;;;;;;;;;;;;;;;21.77;65.15;100083.31;7311966;19;130091;-38
2022/10/04 07:49:22;;;;;;;;;;;;;;;21.80;65.10;100084.81;7312358;19;129245;-37
2022/10/04 07:52:06;;;;;;;;;;;;;;;21.78;65.15;100092.78;7310482;19;129126;-37
2022/10/04 07:54:34;;;;;;;;;;;;;;;21.82;64.96;100090.75;7311377;19;129159;-37
2022/10/04 07:57:26;;;;;;;;;;;;;;;21.77;65.14;100083.31;7306898;19;130496;-38
2022/10/04 07:59:51;;;;;;;;;;;;;;;21.80;64.94;100090.03;7289837;19;130232;-37
2022/10/04 08:02:19;;;;;;;;;;;;;;;21.76;64.91;100089.50;7311110;19;130521;-38
2022/10/04 08:04:45;;;;;;;;;;;;;;;21.76;65.27;100089.50;7309350;19;129270;-38
2022/10/04 08:07:19;;;;;;;;;;;;;;;21.79;65.39;100088.41;7313122;19;129379;-38
2022/10/04 08:09:53;;;;;;;;;;;;;;;21.75;64.63;100092.22;7312891;19;130376;-38
2022/10/04 08:12:28;;;;;;;;;;;;;;;21.74;65.38;100096.63;7313862;19;130798;-37
2022/10/04 08:15:08;;;;;;;;;;;;;;;21.78;65.53;100092.78;7308749;19;128864;-38
2022/10/04 08:17:40;;;;;;;;;;;;;;;21.79;65.37;100097.09;7310862;19;129378;-38
2022/10/04 08:20:18;;;;;;;;;;;;;;;21.78;65.13;100105.88;7311304;19;129705;-37
2022/10/04 08:22:58;;;;;;;;;;;;;;;21.78;64.77;100099.84;7307794;19;130450;-38
2022/10/04 08:25:32;;;;;;;;;;;;;;;21.79;65.55;100104.94;7310247;19;130349;-38
2022/10/04 08:30:45;;;;;;;;;;;;;;;21.80;64.63;100105.75;7309928;19;129439;-37
2022/10/04 08:33:21;;;;;;;;;;;;;;;21.72;65.12;100103.75;7312013;19;129084;-38
2022/10/04 08:36:03;;;;;;;;;;;;;;;21.78;65.31;100123.41;7310337;19;128953;-37
2022/10/04 08:38:36;;;;;;;;;;;;;;;21.75;65.54;100119.19;7311072;19;129725;-37
2022/10/04 08:41:10;;;;;;;;;;;;;;;21.80;64.93;100117.06;7310202;19;131205;-38
2022/10/04 08:43:48;;;;;;;;;;;;;;;21.79;64.64;100120.66;7310904;19;130392;-38
2022/10/04 08:46:13;;;;;;;;;;;;;;;21.67;65.14;100107.69;7313426;19;129084;-37
2022/10/04 08:48:48;;;;;;;;;;;;;;;21.76;65.42;100125.28;7312358;19;129286;-38
2022/10/04 08:51:39;;;;;;;;;;;;;;;21.81;65.23;100123.97;7311385;19;130649;-38
2022/10/04 08:54:24;;;;;;;;;;;;;;;21.74;64.94;100120.16;7306675;19;129332;-37
2022/10/04 08:56:50;;;;;;;;;;;;;;;21.75;64.99;100127.06;7310654;19;129316;-37
2022/10/04 08:59:31;;;;;;;;;;;;;;;21.79;65.44;100128.50;7310781;19;130165;-38
2022/10/04 09:02:07;;;;;;;;;;;;;;;21.77;65.06;100133.03;7308712;19;131080;-37
2022/10/04 09:04:47;;;;;;;;;;;;;;;21.78;64.74;100126.00;7308902;19;130396;-38
2022/10/04 09:07:27;;;;;;;;;;;;;;;21.74;64.98;100128.03;7310870;19;129902;-37
2022/10/04 09:10:05;;;;;;;;;;;;;;;21.76;65.75;100126.16;7312521;19;130744;-37
2022/10/04 09:12:31;;;;;;;;;;;;;;;21.75;64.85;100128.84;7308918;19;129803;-37
2022/10/04 09:14:56;;;;;;;;;;;;;;;21.71;65.71;100111.75;7308415;19;129025;-37
2022/10/04 09:17:48;;;;;;;;;;;;;;;21.76;65.16;100128.75;7310471;19;128955;-38
2022/10/04 09:20:20;;;;;;;;;;;;;;;21.70;64.96;100115.31;7305243;19;129830;-37
2022/10/04 09:23:03;;;;;;;;;;;;;;;21.74;65.75;100117.56;7309749;19;129970;-38
2022/10/04 09:25:48;;;;;;;;;;;;;;;21.72;65.47;100119.47;7310033;19;129155;-38
2022/10/04 09:28:16;;;;;;;;;;;;;;;21.76;65.22;100131.38;7308852;19;129153;-38
2022/10/04 09:30:45;;;;;;;;;;;;;;;21.81;65.22;100131.00;7309186;19;129903;-38
2022/10/04 09:33:24;;;;;;;;;;;;;;;21.80;64.92;100132.75;7308770;19;130532;-38
2022/10/04 09:36:04;;;;;;;;;;;;;;;21.81;65.29;100123.97;7307646;19;130412;-37
2022/10/04 09:38:44;;;;;;;;;;;;;;;21.81;65.21;100118.75;7310624;19;128920;-37
2022/10/04 09:41:27;;;;;;;;;;;;;;;21.66;65.58;100109.50;7303394;19;129195;-38
2022/10/04 09:43:56;;;;;;;;;;;;;;;21.76;65.01;100120.03;7303801;19;130274;-37
2022/10/04 09:46:30;;;;;;;;;;;;;;;21.76;64.87;100126.16;7310544;19;129695;-37
2022/10/04 09:48:55;;;;;;;;;;;;;;;21.74;64.96;100120.16;7309203;19;129330;-38
2022/10/04 09:51:40;;;;;;;;;;;;;;;21.73;65.52;100120.31;7305582;19;129335;-38
2022/10/04 09:54:06;;;;;;;;;;;;;;;21.74;65.11;100128.03;7307942;19;129661;-37
2022/10/04 09:56:31;;;;;;;;;;;;;;;21.79;64.78;100125.88;7309511;19;129077;-37
2022/10/04 09:59:01;;;;;;;;;;;;;;;21.75;65.34;100124.44;7310939;19;129137;-37
2022/10/04 10:01:40;;;;;;;;;;;;;;;21.71;65.10;100125.66;7304898;19;132481;-38
2022/10/04 10:04:05;;;;;;;;;;;;;;;21.76;65.60;100123.53;7309611;19;130432;-38
2022/10/04 10:06:35;;;;;;;;;;;;;;;21.76;64.97;100125.28;7310542;19;128873;-38
2022/10/04 10:09:07;;;;;;;;;;;;;;;21.74;65.48;100127.19;7307573;19;129565;-38
2022/10/04 10:14:41;;;;;;;;;;;;;;;21.73;65.42;100123.72;7305275;19;129645;-38
2022/10/04 10:17:09;;;;;;;;;;;;;;;21.77;65.03;100114.72;7310682;19;129275;-37
2022/10/04 10:19:53;;;;;;;;;;;;;;;21.80;65.44;100130.16;7310055;19;129205;-37
2022/10/04 10:22:21;;;;;;;;;;;;;;;21.76;65.03;100126.16;7308527;19;129159;-37
2022/10/04 10:25:13;;;;;;;;;;;;;;;21.76;65.58;100120.91;7311814;19;129144;-38
2022/10/04 10:27:53;;;;;;;;;;;;;;;21.75;65.45;100121.00;7314584;19;130750;-38
2022/10/04 10:30:29;;;;;;;;;;;;;;;21.75;65.00;100129.66;7317177;19;128779;-37
2022/10/04 10:32:55;;;;;;;;;;;;;;;21.77;65.65;100130.41;7311179;19;130322;-37
2022/10/04 10:35:23;;;;;;;;;;;;;;;21.76;65.36;100134.00;7316998;19;129364;-37
2022/10/04 10:37:54;;;;;;;;;;;;;;;21.80;65.03;100132.75;7313236;19;129954;-38
2022/10/04 10:40:29;;;;;;;;;;;;;;;21.78;64.87;100132.06;7315386;19;130245;-38
2022/10/04 10:43:00;;;;;;;;;;;;;;;21.80;65.17;100131.94;7314029;19;129621;-38
2022/10/04 10:45:39;;;;;;;;;;;;;;;21.75;64.53;100132.28;7311486;19;131099;-38
2022/10/04 10:48:12;;;;;;;;;;;;;;;21.81;64.71;100131.81;7315366;19;129270;-38
2022/10/04 10:50:57;;;;;;;;;;;;;;;21.83;65.23;100135.13;7315623;19;129529;-38
2022/10/04 10:53:28;;;;;;;;;;;;;;;21.79;65.19;100131.13;7314928;19;129386;-38
2022/10/04 10:56:11;;;;;;;;;;;;;;;21.79;64.92;100125.03;7315080;19;130313;-38
2022/10/04 10:58:56;;;;;;;;;;;;;;;21.77;65.01;100124.34;7316164;19;130943;-38
2022/10/04 11:01:40;;;;;;;;;;;;;;;21.74;65.80;100133.25;7311605;19;130282;-38
2022/10/04 11:04:13;;;;;;;;;;;;;;;21.73;65.48;100131.56;7315239;19;129185;-38
2022/10/04 11:07:04;;;;;;;;;;;;;;;21.64;65.49;100100.13;7309288;19;129274;-38
2022/10/04 11:09:41;;;;;;;;;;;;;;;21.77;65.26;100119.09;7312974;19;129082;-38
2022/10/04 11:12:25;;;;;;;;;;;;;;;21.76;65.36;100120.03;7309018;19;128918;-38
2022/10/04 11:15:02;;;;;;;;;;;;;;;21.73;65.08;100123.72;7309475;19;129843;-38
2022/10/04 11:17:31;;;;;;;;;;;;;;;21.78;65.29;100113.72;7314346;19;129213;-38
2022/10/04 11:19:56;;;;;;;;;;;;;;;21.77;65.19;100113.88;7314530;19;129930;-38
2022/10/04 11:22:30;;;;;;;;;;;;;;;21.75;65.55;100107.94;7313694;19;129009;-37
2022/10/04 11:24:59;;;;;;;;;;;;;;;21.75;64.74;100113.97;7310990;19;131188;-37
2022/10/04 11:27:45;;;;;;;;;;;;;;;21.76;65.44;100110.44;7314564;19;130249;-37
2022/10/04 11:30:21;;;;;;;;;;;;;;;21.74;64.80;100114.94;7313839;19;129526;-38
2022/10/04 11:32:49;;;;;;;;;;;;;;;21.77;64.86;100106.84;7313676;19;129452;-38
2022/10/04 11:35:23;;;;;;;;;;;;;;;21.78;65.32;100108.50;7309346;19;131131;-37
2022/10/04 11:37:56;;;;;;;;;;;;;;;21.75;65.07;100106.13;7313750;19;129986;-37
2022/10/04 11:40:31;;;;;;;;;;;;;;;21.75;65.41;100108.72;7314304;19;129521;-38
2022/10/04 11:42:59;;;;;;;;;;;;;;;21.74;65.12;100107.09;7304824;19;131283;-38
2022/10/04 11:45:32;;;;;;;;;;;;;;;21.69;65.07;100093.56;7312541;19;130920;-37
2022/10/04 11:48:15;;;;;;;;;;;;;;;21.78;64.93;100105.88;7310134;19;130436;-37
2022/10/04 11:51:02;;;;;;;;;;;;;;;21.73;65.52;100100.16;7312785;19;128953;-38
2022/10/04 11:53:46;;;;;;;;;;;;;;;21.75;65.51;100108.72;7311696;19;129083;-37
2022/10/04 11:56:28;;;;;;;;;;;;;;;21.77;65.04;100106.84;7313843;19;130984;-37
2022/10/04 11:59:01;;;;;;;;;;;;;;;21.76;65.00;100102.59;7307141;19;129486;-37
2022/10/04 12:01:48;;;;;;;;;;;;;;;21.74;65.43;100090.53;7310273;19;130176;-37
2022/10/04 12:04:29;;;;;;;;;;;;;;;21.78;65.21;100098.03;7309772;19;129120;-38
2022/10/04 12:06:57;;;;;;;;;;;;;;;21.73;65.08;100100.16;7310763;19;129602;-38
2022/10/04 12:09:32;;;;;;;;;;;;;;;21.72;64.96;100095.91;7313072;19;130167;-36
2022/10/04 12:14:50;;;;;;;;;;;;;;;21.77;65.42;100091.16;7310072;19;130672;-38
2022/10/04 12:17:28;;;;;;;;;;;;;;;21.79;65.62;100084.00;7313705;19;129128;-37
2022/10/04 12:19:53;;;;;;;;;;;;;;;21.76;65.12;100084.28;7310007;19;129337;-37
2022/10/04 12:22:37;;;;;;;;;;;;;;;21.74;65.21;100083.53;7310317;19;128917;-38
2022/10/04 12:25:30;;;;;;;;;;;;;;;21.74;65.46;100074.84;7310227;19;129959;-38
2022/10/04 12:27:56;;;;;;;;;;;;;;;21.77;65.09;100072.81;7314404;19;129649;-37
2022/10/04 12:30:25;;;;;;;;;;;;;;;21.75;65.15;100071.28;7310330;19;130459;-38
2022/10/04 12:32:53;;;;;;;;;;;;;;;21.76;65.18;100076.41;7313055;19;129479;-37
2022/10/04 12:35:18;;;;;;;;;;;;;;;21.76;65.36;100067.69;7309029;19;129660;-38
2022/10/04 12:38:02;;;;;;;;;;;;;;;21.75;65.35;100066.03;7310767;19;129384;-38
2022/10/04 12:40:33;;;;;;;;;;;;;;;21.73;65.10;100070.56;7312690;19;130639;-38
2022/10/04 12:43:21;;;;;;;;;;;;;;;21.74;65.47;100067.00;7313033;19;129104;-36
2022/10/04 12:45:55;;;;;;;;;;;;;;;21.72;65.27;100064.50;7312875;19;129061;-36
2022/10/04 12:48:40;;;;;;;;;;;;;;;21.66;65.04;100051.94;7312203;19;129095;-38
2022/10/04 12:51:08;;;;;;;;;;;;;;;21.65;65.26;100046.84;7312170;19;131305;-37
2022/10/04 12:53:51;;;;;;;;;;;;;;;21.77;65.03;100059.75;7311094;19;129294;-37
2022/10/04 12:56:20;;;;;;;;;;;;;;;21.74;65.07;100062.59;7314140;19;129152;-37
2022/10/04 12:58:58;;;;;;;;;;;;;;;21.76;65.36;100063.34;7309485;19;130956;-37
2022/10/04 13:01:41;;;;;;;;;;;;;;;21.78;65.62;100066.63;7308818;19;130182;-38
2022/10/04 13:04:42;;;;;;;;;;;;;;;21.73;65.72;100067.97;7308238;19;129711;-37
2022/10/04 13:07:24;;;;;;;;;;;;;;;21.74;64.94;100075.69;7305160;19;129859;-38
2022/10/04 13:09:50;;;;;;;;;;;;;;;21.77;65.40;100072.00;7307498;19;129453;-38